Time;durP1;ratioP1;P1;durP2;ratioP2;P2;SDS_P1;SDS_P2;PMS_P1;PMS_P2;Temp;Humidity;BMP_temperature;BMP_pressure;BME280_temperature;BME280_humidity;BME280_pressure;Samples;Min_cycle;Max_cycle;Signal;HPM_P1;HPM_P2
2021/03/10 00:00:44;;;;;;;13.80;9.40;;;4.00;99.90;;;;;;4963495;29;20259;-79
2021/03/10 00:03:10;;;;;;;10.80;8.90;;;4.00;99.90;;;;;;4962665;28;20164;-80
2021/03/10 00:05:38;;;;;;;17.60;10.67;;;4.00;99.90;;;;;;4960944;29;20266;-80
2021/03/10 00:08:05;;;;;;;12.03;10.00;;;4.00;99.90;;;;;;4962747;28;20427;-80
2021/03/10 00:10:30;;;;;;;19.90;9.83;;;4.00;99.90;;;;;;4962086;28;20163;-80
2021/03/10 00:12:56;;;;;;;11.60;8.90;;;4.00;99.90;;;;;;4961281;28;20426;-80
2021/03/10 00:15:22;;;;;;;12.37;9.20;;;4.20;99.90;;;;;;4962403;28;20298;-80
2021/03/10 00:17:48;;;;;;;19.40;11.40;;;4.20;99.90;;;;;;4960376;29;20156;-80
2021/03/10 00:20:16;;;;;;;16.87;9.97;;;4.40;99.90;;;;;;4962508;28;20159;-80
2021/03/10 00:22:42;;;;;;;13.70;8.43;;;4.40;99.90;;;;;;4961186;28;20171;-80
2021/03/10 00:25:09;;;;;;;16.23;11.50;;;4.40;99.90;;;;;;4961976;28;20756;-80
2021/03/10 00:27:35;;;;;;;14.23;9.97;;;4.30;99.90;;;;;;4960955;28;20218;-80
2021/03/10 00:30:04;;;;;;;16.40;10.80;;;4.30;99.90;;;;;;4961138;28;20455;-78
2021/03/10 00:32:30;;;;;;;17.20;10.60;;;4.40;99.90;;;;;;4959099;28;20171;-78
2021/03/10 00:34:56;;;;;;;12.83;10.30;;;4.40;99.90;;;;;;4959760;29;20979;-80
2021/03/10 00:37:23;;;;;;;17.90;10.03;;;4.50;99.90;;;;;;4960223;28;20558;-80
2021/03/10 00:39:50;;;;;;;13.63;10.90;;;4.30;99.90;;;;;;4944350;29;20433;-80
2021/03/10 00:42:17;;;;;;;15.30;10.70;;;4.10;99.90;;;;;;4961717;28;20395;-79
2021/03/10 00:44:42;;;;;;;15.43;9.60;;;4.10;99.90;;;;;;4961683;28;20403;-79
2021/03/10 00:47:09;;;;;;;16.67;9.77;;;4.00;99.90;;;;;;4961758;28;20539;-80
2021/03/10 00:49:36;;;;;;;14.10;9.90;;;3.90;99.90;;;;;;4961604;28;20183;-80
2021/03/10 00:52:02;;;;;;;15.10;10.60;;;4.10;99.90;;;;;;4961604;28;20861;-80
2021/03/10 00:54:28;;;;;;;12.70;9.27;;;4.20;99.90;;;;;;4962198;28;20403;-79
2021/03/10 00:56:54;;;;;;;17.17;9.87;;;4.10;99.90;;;;;;4961997;28;20429;-80
2021/03/10 00:59:20;;;;;;;15.60;10.87;;;4.10;99.90;;;;;;4962098;28;20455;-80
2021/03/10 01:01:45;;;;;;;14.20;10.80;;;4.10;99.90;;;;;;4962161;28;20156;-80
2021/03/10 01:04:11;;;;;;;15.03;9.40;;;4.10;99.90;;;;;;4961258;28;20163;-80
2021/03/10 01:06:37;;;;;;;11.67;9.27;;;4.20;99.90;;;;;;4962355;28;20218;-81
2021/03/10 01:09:06;;;;;;;19.43;9.43;;;4.20;99.90;;;;;;4961745;28;20406;-80
2021/03/10 01:11:32;;;;;;;16.27;11.27;;;4.10;99.90;;;;;;4961465;28;20174;-80
2021/03/10 01:13:58;;;;;;;17.73;9.70;;;4.10;99.90;;;;;;4961892;28;20383;-81
2021/03/10 01:16:24;;;;;;;12.80;9.47;;;4.20;99.90;;;;;;4961365;28;20922;-81
2021/03/10 01:18:50;;;;;;;18.37;10.57;;;4.10;99.90;;;;;;4961615;28;20402;-80
2021/03/10 01:21:17;;;;;;;12.93;8.83;;;4.00;99.90;;;;;;4960710;29;20164;-80
2021/03/10 01:23:43;;;;;;;14.17;9.40;;;4.00;99.90;;;;;;4960507;29;20164;-81
2021/03/10 01:26:08;;;;;;;16.00;9.83;;;4.10;99.90;;;;;;4967836;28;20395;-78
2021/03/10 01:28:34;;;;;;;14.53;9.43;;;4.10;99.90;;;;;;4972749;28;20163;-78
2021/03/10 01:31:00;;;;;;;16.20;9.20;;;4.10;99.90;;;;;;4972685;28;20258;-78
2021/03/10 01:33:26;;;;;;;14.87;8.80;;;4.10;99.90;;;;;;4974335;28;20163;-77
2021/03/10 01:35:51;;;;;;;17.73;10.20;;;4.20;99.90;;;;;;4973215;28;20210;-78
2021/03/10 01:38:17;;;;;;;16.97;10.20;;;4.40;99.90;;;;;;4961471;28;20227;-78
2021/03/10 01:40:43;;;;;;;16.17;11.43;;;4.60;99.90;;;;;;4960369;28;20167;-78
2021/03/10 01:43:09;;;;;;;13.30;9.93;;;4.50;99.90;;;;;;4960388;28;20160;-80
2021/03/10 01:45:36;;;;;;;15.43;9.07;;;4.50;99.90;;;;;;4959077;28;20466;-80
2021/03/10 01:48:06;;;;;;;15.57;9.03;;;4.50;99.90;;;;;;4959712;29;20396;-79
2021/03/10 01:50:32;;;;;;;20.43;11.80;;;4.50;99.90;;;;;;4961041;28;20493;-80
2021/03/10 01:52:58;;;;;;;14.57;10.10;;;4.60;99.90;;;;;;4960134;28;20792;-80
2021/03/10 01:55:25;;;;;;;15.57;9.90;;;4.70;99.90;;;;;;4960742;28;20800;-80
2021/03/10 01:57:51;;;;;;;14.00;8.73;;;4.40;99.90;;;;;;4960843;28;20399;-80
2021/03/10 02:00:18;;;;;;;12.77;9.20;;;4.20;99.90;;;;;;4960163;29;20498;-80
2021/03/10 02:02:44;;;;;;;14.13;10.33;;;4.30;99.90;;;;;;4960229;29;20594;-80
2021/03/10 02:05:15;;;;;;;16.90;9.10;;;4.30;99.90;;;;;;4959155;29;20444;-80
2021/03/10 02:08:00;;;;;;;17.37;9.57;;;4.20;99.90;;;;;;4960116;28;20404;-80
2021/03/10 02:10:54;;;;;;;19.33;10.27;;;4.20;99.90;;;;;;4959888;28;20431;-80
2021/03/10 02:13:32;;;;;;;17.50;10.73;;;4.40;99.90;;;;;;4959765;28;20410;-80
2021/03/10 02:16:17;;;;;;;16.27;10.80;;;4.20;99.90;;;;;;4960137;28;20768;-79
2021/03/10 02:18:46;;;;;;;14.37;10.03;;;4.30;99.90;;;;;;4965478;29;20489;-78
2021/03/10 02:21:49;;;;;;;14.90;9.43;;;4.60;99.90;;;;;;4970702;29;20403;-80
2021/03/10 02:24:33;;;;;;;15.23;10.77;;;4.70;99.90;;;;;;4960830;28;20395;-80
2021/03/10 02:27:31;;;;;;;13.50;9.50;;;4.50;99.90;;;;;;4960447;29;20403;-80
2021/03/10 02:30:01;;;;;;;15.57;8.80;;;4.40;99.90;;;;;;4960394;28;20473;-80
2021/03/10 02:32:28;;;;;;;16.10;9.70;;;4.60;99.90;;;;;;4959748;28;20869;-80
2021/03/10 02:34:54;;;;;;;20.40;10.93;;;4.50;99.90;;;;;;4959457;28;20478;-80
2021/03/10 02:37:20;;;;;;;14.77;9.50;;;4.80;99.90;;;;;;4959210;28;20509;-80
2021/03/10 02:39:46;;;;;;;18.67;10.80;;;4.90;99.90;;;;;;4959451;28;20774;-80
2021/03/10 02:42:12;;;;;;;26.00;11.27;;;5.00;99.90;;;;;;4959640;28;20427;-80
2021/03/10 02:44:39;;;;;;;15.40;10.93;;;5.00;99.90;;;;;;4958631;29;20399;-80
2021/03/10 02:47:05;;;;;;;17.80;11.13;;;4.90;99.90;;;;;;4959476;28;20741;-80
2021/03/10 02:49:31;;;;;;;15.37;11.13;;;5.00;99.90;;;;;;4959960;28;20758;-80
2021/03/10 02:51:59;;;;;;;20.50;13.30;;;5.00;99.90;;;;;;4960266;28;20811;-80
2021/03/10 02:54:25;;;;;;;17.37;11.53;;;5.00;99.90;;;;;;4959643;29;20446;-81
2021/03/10 02:56:51;;;;;;;18.33;10.70;;;5.00;99.90;;;;;;4963978;28;20402;-80
2021/03/10 02:59:17;;;;;;;15.57;11.43;;;4.80;99.90;;;;;;4964705;28;20736;-78
2021/03/10 03:01:43;;;;;;;19.10;11.17;;;4.50;99.90;;;;;;4965688;28;20438;-80
2021/03/10 03:04:09;;;;;;;15.97;10.70;;;4.30;99.90;;;;;;4963546;28;20571;-80
2021/03/10 03:06:35;;;;;;;18.27;11.20;;;4.10;99.90;;;;;;4962319;29;20190;-80
2021/03/10 03:09:01;;;;;;;16.73;9.67;;;4.10;99.90;;;;;;4963213;28;20486;-80
2021/03/10 03:11:28;;;;;;;18.33;10.90;;;4.20;99.90;;;;;;4962317;29;20171;-80
2021/03/10 03:13:56;;;;;;;18.67;11.60;;;4.30;99.90;;;;;;4963302;28;20490;-81
2021/03/10 03:16:26;;;;;;;19.80;12.30;;;4.30;99.90;;;;;;4963004;28;20462;-80
2021/03/10 03:18:52;;;;;;;28.00;13.60;;;4.20;99.90;;;;;;4963605;28;20434;-80
2021/03/10 03:21:18;;;;;;;24.43;11.73;;;4.50;99.90;;;;;;4963356;28;20449;-80
2021/03/10 03:23:45;;;;;;;19.10;11.57;;;4.60;99.90;;;;;;4963274;28;20296;-80
2021/03/10 03:26:14;;;;;;;19.23;13.40;;;4.60;99.90;;;;;;4964777;28;20853;-80
2021/03/10 03:28:40;;;;;;;24.03;13.67;;;4.80;99.90;;;;;;4963616;28;20403;-80
2021/03/10 03:31:05;;;;;;;15.00;10.40;;;4.90;99.90;;;;;;4963766;28;20901;-81
2021/03/10 03:33:31;;;;;;;15.80;12.10;;;5.00;99.90;;;;;;4963744;28;20175;-79
2021/03/10 03:35:58;;;;;;;23.07;13.77;;;5.00;99.90;;;;;;4969934;28;20275;-78
2021/03/10 03:38:29;;;;;;;16.00;11.07;;;4.40;99.90;;;;;;4970878;28;20481;-78
2021/03/10 03:40:56;;;;;;;20.70;12.50;;;4.20;99.90;;;;;;4970885;28;20403;-78
2021/03/10 03:43:26;;;;;;;26.33;13.37;;;4.30;99.90;;;;;;4967454;28;20498;-80
2021/03/10 03:45:52;;;;;;;18.90;13.83;;;4.50;99.90;;;;;;4962450;28;20410;-78
2021/03/10 03:48:19;;;;;;;24.00;13.50;;;4.80;99.90;;;;;;4961958;28;20426;-80
2021/03/10 03:50:45;;;;;;;23.80;14.00;;;4.90;99.90;;;;;;4961120;29;20419;-78
2021/03/10 03:53:14;;;;;;;19.80;11.33;;;5.00;99.90;;;;;;4962236;28;20798;-79
2021/03/10 03:55:41;;;;;;;21.13;12.07;;;5.10;99.90;;;;;;4961960;28;20450;-81
2021/03/10 03:58:07;;;;;;;23.47;13.37;;;5.10;99.90;;;;;;4961880;28;20254;-78
2021/03/10 04:00:33;;;;;;;21.30;11.67;;;4.50;99.90;;;;;;4962536;29;20463;-80
2021/03/10 04:02:59;;;;;;;17.60;12.40;;;4.50;99.90;;;;;;4962113;28;20400;-80
2021/03/10 04:05:25;;;;;;;23.10;13.30;;;4.60;99.90;;;;;;4961673;28;20414;-80
2021/03/10 04:07:54;;;;;;;23.43;13.30;;;4.60;99.90;;;;;;4960748;28;20399;-80
2021/03/10 04:10:24;;;;;;;21.50;12.03;;;4.70;99.90;;;;;;4961771;28;20399;-80
2021/03/10 04:12:50;;;;;;;16.60;12.33;;;4.70;99.90;;;;;;4961550;28;20543;-78
2021/03/10 04:15:17;;;;;;;18.60;12.77;;;4.80;99.90;;;;;;4959497;29;20845;-80
2021/03/10 04:17:43;;;;;;;20.50;11.80;;;4.80;99.90;;;;;;4961757;28;20430;-80
2021/03/10 04:20:13;;;;;;;21.97;13.67;;;4.50;99.90;;;;;;4961698;28;20491;-79
2021/03/10 04:22:38;;;;;;;24.50;11.97;;;4.20;99.90;;;;;;4961014;28;20250;-81
2021/03/10 04:25:06;;;;;;;18.87;11.00;;;4.40;99.90;;;;;;4961100;28;20439;-80
2021/03/10 04:27:33;;;;;;;23.57;13.67;;;4.20;99.90;;;;;;4960886;28;20210;-78
2021/03/10 04:29:59;;;;;;;19.07;11.30;;;4.20;99.90;;;;;;4960750;28;20414;-79
2021/03/10 04:32:24;;;;;;;24.47;12.90;;;4.30;99.90;;;;;;4960764;28;20407;-79
2021/03/10 04:34:50;;;;;;;30.73;14.63;;;4.20;99.90;;;;;;4960962;28;20195;-80
2021/03/10 04:37:16;;;;;;;24.43;14.77;;;4.30;99.90;;;;;;4960774;28;20231;-80
2021/03/10 04:39:42;;;;;;;26.40;14.33;;;4.30;99.90;;;;;;4960689;28;20254;-80
2021/03/10 04:42:11;;;;;;;23.33;14.10;;;4.50;99.90;;;;;;4960709;28;20395;-79
2021/03/10 04:44:37;;;;;;;26.63;13.00;;;4.40;99.90;;;;;;4961283;28;20168;-80
2021/03/10 04:47:04;;;;;;;27.40;14.63;;;4.70;99.90;;;;;;4963883;28;20525;-80
2021/03/10 04:49:29;;;;;;;19.37;12.20;;;4.90;99.90;;;;;;4973857;28;20175;-80
2021/03/10 04:51:55;;;;;;;27.40;11.50;;;5.00;99.90;;;;;;4980453;28;20863;-80
2021/03/10 04:54:22;;;;;;;26.87;13.57;;;4.90;99.90;;;;;;4980416;28;20581;-79
2021/03/10 04:56:48;;;;;;;23.33;12.77;;;4.70;99.90;;;;;;4979915;28;20194;-80
2021/03/10 04:59:13;;;;;;;22.17;14.10;;;4.80;99.90;;;;;;4979859;28;20542;-78
2021/03/10 05:01:39;;;;;;;25.10;15.00;;;5.00;99.90;;;;;;4979907;28;20166;-80
2021/03/10 05:04:05;;;;;;;23.00;13.27;;;4.70;99.90;;;;;;4979857;28;20301;-80
2021/03/10 05:06:31;;;;;;;20.37;11.30;;;4.40;99.90;;;;;;4979557;28;20258;-80
2021/03/10 05:08:57;;;;;;;26.60;15.00;;;4.50;99.90;;;;;;4979769;28;20171;-80
2021/03/10 05:11:22;;;;;;;20.97;14.13;;;4.60;99.90;;;;;;4979890;28;20202;-80
2021/03/10 05:13:49;;;;;;;28.63;14.13;;;4.50;99.90;;;;;;4979531;28;20174;-78
2021/03/10 05:16:16;;;;;;;26.97;12.73;;;4.50;99.90;;;;;;4978232;28;20225;-79
2021/03/10 05:18:42;;;;;;;23.00;12.23;;;4.30;99.90;;;;;;4986500;28;20399;-78
2021/03/10 05:21:08;;;;;;;20.53;11.97;;;4.40;99.90;;;;;;4989880;28;20737;-81
2021/03/10 05:23:34;;;;;;;27.03;12.87;;;4.10;99.90;;;;;;4980564;28;20386;-81
2021/03/10 05:26:00;;;;;;;17.63;12.80;;;4.00;99.90;;;;;;4979966;28;20486;-81
2021/03/10 05:28:26;;;;;;;18.00;11.10;;;4.10;99.90;;;;;;4962319;28;20182;-79
2021/03/10 05:30:52;;;;;;;16.73;11.07;;;4.00;99.90;;;;;;4979598;28;20198;-81
2021/03/10 05:33:17;;;;;;;21.93;12.80;;;4.00;99.90;;;;;;4979352;28;20162;-81
2021/03/10 05:35:43;;;;;;;18.30;11.30;;;3.90;99.90;;;;;;4979334;28;20190;-81
2021/03/10 05:38:09;;;;;;;24.00;13.33;;;4.00;99.90;;;;;;4977455;28;20214;-81
2021/03/10 05:40:35;;;;;;;27.43;13.43;;;4.10;99.90;;;;;;4979672;28;20197;-80
2021/03/10 05:43:01;;;;;;;16.07;12.97;;;4.20;99.90;;;;;;4979164;28;20225;-81
2021/03/10 05:45:27;;;;;;;21.83;13.60;;;4.10;99.90;;;;;;4979273;28;20482;-80
2021/03/10 05:47:53;;;;;;;20.40;14.30;;;4.10;99.90;;;;;;4979700;28;20602;-80
2021/03/10 05:50:19;;;;;;;18.50;12.37;;;4.20;99.90;;;;;;4978930;28;20412;-80
2021/03/10 05:52:48;;;;;;;17.93;11.67;;;4.20;99.90;;;;;;4979764;28;20159;-78
2021/03/10 05:55:15;;;;;;;29.80;12.93;;;4.20;99.90;;;;;;4979992;28;20322;-80
2021/03/10 05:57:42;;;;;;;28.37;14.07;;;4.10;99.90;;;;;;4979483;28;20445;-80
2021/03/10 06:00:14;;;;;;;21.07;14.10;;;4.30;99.90;;;;;;4984970;28;20449;-80
2021/03/10 06:02:40;;;;;;;23.53;11.27;;;4.20;99.90;;;;;;4955427;28;20483;-80
2021/03/10 06:05:18;;;;;;;20.90;15.53;;;4.30;99.90;;;;;;4947635;29;20490;-79
2021/03/10 06:07:45;;;;;;;29.97;13.53;;;4.30;99.90;;;;;;4945748;29;20399;-81
2021/03/10 06:10:11;;;;;;;21.40;13.10;;;4.40;99.90;;;;;;4941387;29;20905;-80
2021/03/10 06:12:41;;;;;;;21.30;13.47;;;4.40;99.90;;;;;;4941064;29;20464;-80
2021/03/10 06:15:08;;;;;;;25.70;14.63;;;4.30;99.90;;;;;;4940729;29;20455;-80
2021/03/10 06:17:43;;;;;;;22.37;12.70;;;4.40;99.90;;;;;;4940881;29;20408;-81
2021/03/10 06:20:10;;;;;;;24.27;12.80;;;4.20;99.90;;;;;;4941468;29;20392;-80
2021/03/10 06:22:36;;;;;;;23.73;12.63;;;4.00;99.90;;;;;;4956451;29;20441;-81
2021/03/10 06:25:03;;;;;;;22.93;11.87;;;4.10;99.90;;;;;;4966526;28;20410;-80
2021/03/10 06:27:29;;;;;;;24.23;13.70;;;4.10;99.90;;;;;;4979153;28;20532;-80
2021/03/10 06:29:58;;;;;;;18.43;10.67;;;4.20;99.90;;;;;;4962402;28;20431;-81
2021/03/10 06:32:24;;;;;;;22.10;13.20;;;4.10;99.90;;;;;;4942373;29;20267;-81
2021/03/10 06:34:52;;;;;;;22.70;13.60;;;4.10;99.90;;;;;;4941208;29;20454;-80
2021/03/10 06:37:28;;;;;;;25.23;14.43;;;4.10;99.90;;;;;;4940780;29;20471;-80
2021/03/10 06:40:13;;;;;;;29.63;12.67;;;4.10;99.90;;;;;;4941602;29;20756;-80
2021/03/10 06:42:40;;;;;;;26.00;12.33;;;4.20;99.90;;;;;;4941153;29;20494;-78
2021/03/10 06:45:07;;;;;;;20.43;12.73;;;4.30;99.90;;;;;;4951789;28;20426;-80
2021/03/10 06:47:37;;;;;;;31.40;15.57;;;4.30;99.90;;;;;;4960097;28;20876;-80
2021/03/10 06:50:04;;;;;;;24.47;13.07;;;4.30;99.90;;;;;;4960372;28;20439;-81
2021/03/10 06:52:30;;;;;;;23.43;13.60;;;4.30;99.90;;;;;;4960025;28;20404;-81
2021/03/10 06:54:58;;;;;;;33.77;17.40;;;4.40;99.90;;;;;;4958577;29;20752;-81
2021/03/10 06:57:24;;;;;;;26.73;15.93;;;4.70;99.90;;;;;;4960515;28;20181;-80
2021/03/10 06:59:52;;;;;;;25.07;14.50;;;4.80;99.90;;;;;;4960452;28;20399;-80
2021/03/10 07:02:21;;;;;;;27.13;16.23;;;4.90;99.90;;;;;;4961664;28;20439;-79
2021/03/10 07:04:49;;;;;;;24.80;16.67;;;4.80;99.90;;;;;;4962005;29;20439;-81
2021/03/10 07:07:16;;;;;;;31.80;15.33;;;4.70;99.90;;;;;;4960438;28;20423;-81
2021/03/10 07:09:42;;;;;;;21.87;14.13;;;4.70;99.90;;;;;;4959560;29;20419;-80
2021/03/10 07:12:10;;;;;;;31.40;16.23;;;4.70;99.90;;;;;;4957656;28;20440;-81
2021/03/10 07:14:37;;;;;;;26.77;15.17;;;5.00;99.90;;;;;;4957035;28;20908;-81
2021/03/10 07:17:06;;;;;;;27.27;15.17;;;4.90;99.90;;;;;;4952839;28;20448;-81
2021/03/10 07:19:32;;;;;;;23.70;15.40;;;4.80;99.90;;;;;;4960252;28;20541;-81
2021/03/10 07:22:13;;;;;;;20.40;13.13;;;5.00;99.90;;;;;;4959331;28;20458;-81
2021/03/10 07:24:59;;;;;;;29.07;15.67;;;4.90;99.90;;;;;;4960135;28;20636;-81
2021/03/10 07:27:31;;;;;;;27.70;15.57;;;5.00;99.90;;;;;;4949470;28;20800;-80
2021/03/10 07:29:59;;;;;;;24.73;16.80;;;5.00;99.90;;;;;;4941441;29;20396;-81
2021/03/10 07:32:26;;;;;;;25.57;15.40;;;5.20;99.90;;;;;;4956785;29;20454;-81
2021/03/10 07:35:02;;;;;;;26.00;14.23;;;5.20;99.90;;;;;;4952302;28;20896;-80
2021/03/10 07:37:28;;;;;;;27.43;15.00;;;5.30;99.90;;;;;;4954468;28;20497;-80
2021/03/10 07:40:11;;;;;;;25.90;14.20;;;5.20;99.90;;;;;;4958136;28;20425;-79
2021/03/10 07:42:50;;;;;;;31.43;19.10;;;5.00;99.90;;;;;;4952127;28;20784;-80
2021/03/10 07:45:16;;;;;;;22.53;14.03;;;5.00;99.90;;;;;;4961210;28;20939;-81
2021/03/10 07:47:58;;;;;;;25.27;16.27;;;5.00;99.90;;;;;;4950913;28;20489;-80
2021/03/10 07:50:37;;;;;;;26.87;16.60;;;5.40;99.90;;;;;;4957874;28;20426;-80
2021/03/10 07:53:03;;;;;;;27.80;16.00;;;5.20;99.90;;;;;;4933173;29;20953;-80
2021/03/10 07:55:29;;;;;;;28.97;14.67;;;5.40;99.90;;;;;;4931409;29;20471;-80
2021/03/10 07:57:55;;;;;;;23.97;14.87;;;5.40;99.90;;;;;;4931386;29;20196;-80
2021/03/10 08:00:34;;;;;;;28.00;16.30;;;5.60;99.90;;;;;;4927241;29;20183;-80
2021/03/10 08:03:02;;;;;;;34.60;17.20;;;5.80;99.90;;;;;;4938155;29;20783;-79
2021/03/10 08:05:29;;;;;;;27.47;17.10;;;5.90;99.90;;;;;;4922498;29;20451;-78
2021/03/10 08:08:10;;;;;;;31.00;16.27;;;6.00;99.90;;;;;;4945061;29;20527;-79
2021/03/10 08:10:37;;;;;;;31.40;17.57;;;6.30;99.90;;;;;;4899423;29;20451;-78
2021/03/10 08:13:20;;;;;;;39.07;19.30;;;6.40;99.90;;;;;;4928424;29;20947;-80
2021/03/10 08:15:49;;;;;;;30.03;17.40;;;6.10;99.90;;;;;;4928723;29;21005;-79
2021/03/10 08:18:21;;;;;;;28.00;14.87;;;6.10;99.90;;;;;;4931966;29;20436;-80
2021/03/10 08:20:48;;;;;;;26.63;16.70;;;6.10;99.90;;;;;;4930748;29;20542;-80
2021/03/10 08:23:13;;;;;;;25.80;15.40;;;6.50;99.90;;;;;;4931665;29;20440;-79
2021/03/10 08:25:40;;;;;;;30.53;17.60;;;6.40;99.90;;;;;;4954996;28;20505;-80
2021/03/10 08:28:14;;;;;;;30.67;18.17;;;6.80;99.90;;;;;;4953232;28;20207;-80
2021/03/10 08:30:41;;;;;;;29.40;17.40;;;6.80;99.90;;;;;;4951039;28;20450;-81
2021/03/10 08:33:10;;;;;;;29.37;17.57;;;7.00;99.90;;;;;;4955900;28;20438;-81
2021/03/10 08:35:36;;;;;;;26.33;16.97;;;6.90;99.90;;;;;;4962968;28;20466;-80
2021/03/10 08:38:04;;;;;;;37.43;17.70;;;6.50;99.90;;;;;;4965729;28;20469;-80
2021/03/10 08:40:31;;;;;;;28.53;17.93;;;6.90;99.90;;;;;;4952857;28;20487;-79
2021/03/10 08:43:00;;;;;;;28.97;17.33;;;7.00;99.90;;;;;;4964491;28;20431;-78
2021/03/10 08:45:35;;;;;;;34.73;18.47;;;6.80;99.90;;;;;;4962062;28;20441;-79
2021/03/10 08:48:04;;;;;;;29.43;17.87;;;6.80;99.90;;;;;;4938768;28;20434;-81
2021/03/10 08:50:36;;;;;;;26.57;17.83;;;6.90;99.90;;;;;;4956179;28;20437;-79
2021/03/10 08:53:04;;;;;;;32.37;16.57;;;7.10;99.90;;;;;;4950180;28;20423;-79
2021/03/10 08:55:30;;;;;;;28.70;17.00;;;7.10;99.90;;;;;;4956135;28;20490;-82
2021/03/10 08:57:59;;;;;;;30.07;19.10;;;7.30;99.90;;;;;;4958124;28;20430;-81
2021/03/10 09:00:28;;;;;;;32.13;18.67;;;7.30;99.90;;;;;;4956265;28;20494;-80
2021/03/10 09:02:54;;;;;;;31.10;17.07;;;7.50;99.90;;;;;;4956424;28;20444;-81
2021/03/10 09:05:29;;;;;;;24.10;15.60;;;7.50;99.90;;;;;;4918300;29;20441;-80
2021/03/10 09:07:57;;;;;;;32.13;17.97;;;7.50;99.90;;;;;;4954907;28;20468;-81
2021/03/10 09:10:24;;;;;;;28.77;16.90;;;7.60;99.90;;;;;;4955363;28;20434;-80
2021/03/10 09:12:52;;;;;;;29.50;18.93;;;7.50;99.90;;;;;;4958725;28;20530;-81
2021/03/10 09:15:24;;;;;;;30.77;18.33;;;7.50;99.90;;;;;;4938786;29;20490;-80
2021/03/10 09:17:50;;;;;;;37.27;18.40;;;7.50;99.90;;;;;;4955916;28;20439;-80
2021/03/10 09:20:30;;;;;;;29.10;17.60;;;7.40;99.90;;;;;;4964637;28;20905;-78
2021/03/10 09:22:58;;;;;;;29.33;17.10;;;7.50;99.90;;;;;;4932799;29;20455;-81
2021/03/10 09:25:29;;;;;;;38.63;20.00;;;7.50;99.90;;;;;;4930657;29;20514;-81
2021/03/10 09:28:04;;;;;;;33.10;16.53;;;7.40;99.90;;;;;;4927702;29;20527;-80
2021/03/10 09:30:34;;;;;;;25.97;16.10;;;7.50;99.90;;;;;;4898823;29;20916;-80
2021/03/10 09:33:01;;;;;;;34.00;17.50;;;7.50;99.90;;;;;;4917928;29;20454;-80
2021/03/10 09:35:31;;;;;;;31.47;17.40;;;7.40;99.90;;;;;;4936477;29;20823;-80
2021/03/10 09:38:02;;;;;;;31.23;17.90;;;7.40;99.90;;;;;;4930893;29;20853;-79
2021/03/10 09:40:45;;;;;;;41.40;20.93;;;7.30;99.90;;;;;;4939196;29;20548;-79
2021/03/10 09:43:19;;;;;;;31.83;18.60;;;7.40;99.90;;;;;;4915872;29;20536;-80
2021/03/10 09:45:46;;;;;;;23.37;13.87;;;7.20;99.90;;;;;;4917523;29;20553;-79
2021/03/10 09:48:18;;;;;;;33.73;17.43;;;7.00;99.90;;;;;;4938225;29;20410;-78
2021/03/10 09:50:47;;;;;;;26.13;16.93;;;7.20;99.90;;;;;;4917143;29;20455;-79
2021/03/10 09:53:17;;;;;;;24.27;14.67;;;7.20;99.90;;;;;;4937677;29;20447;-77
2021/03/10 09:55:43;;;;;;;29.87;16.93;;;7.30;99.90;;;;;;4952923;29;20454;-78
2021/03/10 09:58:11;;;;;;;24.30;14.10;;;7.40;99.90;;;;;;4943764;28;20793;-79
2021/03/10 10:00:39;;;;;;;25.43;13.60;;;7.30;99.90;;;;;;4959182;28;20955;-78
2021/03/10 10:03:06;;;;;;;25.37;14.80;;;7.30;99.90;;;;;;4939072;28;20431;-78
2021/03/10 10:05:35;;;;;;;37.67;18.03;;;7.30;99.90;;;;;;4925891;28;20420;-80
2021/03/10 10:08:03;;;;;;;30.87;15.30;;;7.20;99.90;;;;;;4951934;28;20867;-80
2021/03/10 10:10:29;;;;;;;31.60;16.80;;;7.20;99.90;;;;;;4923609;29;20441;-81
2021/03/10 10:12:56;;;;;;;24.13;14.77;;;7.20;99.90;;;;;;4944981;28;20816;-81
2021/03/10 10:15:25;;;;;;;26.23;15.90;;;7.20;99.90;;;;;;4963260;28;20497;-81
2021/03/10 10:17:54;;;;;;;32.87;15.70;;;7.20;99.90;;;;;;4954947;28;20431;-78
2021/03/10 10:20:23;;;;;;;26.40;14.60;;;7.30;99.90;;;;;;4965547;29;20439;-80
2021/03/10 10:22:55;;;;;;;30.77;15.33;;;7.30;99.90;;;;;;4958667;28;20435;-79
2021/03/10 10:25:23;;;;;;;23.00;13.63;;;7.40;99.90;;;;;;4965319;28;20473;-79
2021/03/10 10:27:53;;;;;;;27.07;16.23;;;7.40;99.90;;;;;;4947152;28;20439;-80
2021/03/10 10:30:22;;;;;;;24.37;14.80;;;7.40;99.90;;;;;;4944263;29;20482;-78
2021/03/10 10:32:51;;;;;;;24.63;15.43;;;7.50;99.90;;;;;;4927333;29;20447;-78
2021/03/10 10:35:18;;;;;;;30.80;14.37;;;7.50;99.90;;;;;;4933842;29;20528;-78
2021/03/10 10:37:44;;;;;;;49.67;25.20;;;7.60;99.90;;;;;;4933622;29;20483;-79
2021/03/10 10:40:15;;;;;;;36.00;17.07;;;7.70;99.90;;;;;;4929367;29;20499;-79
2021/03/10 10:42:41;;;;;;;30.47;16.93;;;7.70;99.90;;;;;;4943333;29;20444;-79
2021/03/10 10:45:27;;;;;;;26.50;16.57;;;7.90;99.90;;;;;;4936935;29;20443;-80
2021/03/10 10:47:53;;;;;;;32.93;15.40;;;7.20;99.90;;;;;;4940496;29;20455;-79
2021/03/10 10:50:19;;;;;;;32.13;14.27;;;7.30;99.90;;;;;;4940856;29;20451;-80
2021/03/10 10:52:47;;;;;;;26.23;14.27;;;7.70;99.90;;;;;;4945663;29;20192;-79
2021/03/10 10:55:17;;;;;;;29.77;15.03;;;7.50;99.90;;;;;;4948047;29;20246;-79
2021/03/10 10:57:43;;;;;;;26.07;15.77;;;7.50;99.90;;;;;;4941207;29;20478;-80
2021/03/10 11:00:12;;;;;;;29.33;15.40;;;7.60;99.90;;;;;;4902814;29;20973;-80
2021/03/10 11:02:38;;;;;;;24.50;14.70;;;7.20;99.90;;;;;;4918951;29;20598;-80
2021/03/10 11:05:06;;;;;;;27.30;15.10;;;7.50;99.90;;;;;;4905353;29;20441;-78
2021/03/10 11:07:32;;;;;;;26.97;14.10;;;8.20;99.90;;;;;;4925989;29;20519;-80
2021/03/10 11:09:57;;;;;;;26.57;15.30;;;8.40;99.90;;;;;;4928955;29;20530;-79
2021/03/10 11:12:23;;;;;;;28.60;16.30;;;8.60;99.90;;;;;;4922475;29;20701;-81
2021/03/10 11:14:50;;;;;;;23.07;13.90;;;8.50;99.90;;;;;;4924319;29;20300;-79
2021/03/10 11:17:16;;;;;;;30.00;14.83;;;9.20;99.90;;;;;;4923408;29;20445;-81
2021/03/10 11:19:41;;;;;;;25.40;14.33;;;10.00;99.90;;;;;;4948973;29;20657;-81
2021/03/10 11:22:07;;;;;;;25.97;14.90;;;10.20;99.90;;;;;;4943526;29;20220;-81
2021/03/10 11:24:34;;;;;;;29.03;15.37;;;11.30;99.90;;;;;;4928601;29;20200;-80
2021/03/10 11:27:01;;;;;;;25.57;14.73;;;11.60;99.90;;;;;;4947924;29;20435;-81
2021/03/10 11:29:27;;;;;;;24.60;15.73;;;11.30;99.90;;;;;;4941218;29;20445;-79
2021/03/10 11:31:52;;;;;;;25.47;15.87;;;10.90;99.90;;;;;;4946972;29;20459;-79
2021/03/10 11:34:18;;;;;;;24.73;15.73;;;9.70;99.90;;;;;;4946834;29;20471;-80
2021/03/10 11:36:45;;;;;;;25.53;15.63;;;10.30;99.90;;;;;;4951861;28;20236;-81
2021/03/10 11:39:13;;;;;;;21.40;13.23;;;10.40;99.90;;;;;;4964903;28;20302;-81
2021/03/10 11:41:39;;;;;;;25.30;15.47;;;9.80;99.90;;;;;;4968362;28;20458;-81
2021/03/10 11:44:06;;;;;;;20.20;11.93;;;10.10;99.90;;;;;;4960574;28;20584;-81
2021/03/10 11:46:32;;;;;;;20.97;13.20;;;9.70;99.90;;;;;;4968480;28;20182;-81
2021/03/10 11:49:04;;;;;;;25.83;12.57;;;9.90;99.90;;;;;;4965416;28;20430;-80
2021/03/10 11:51:31;;;;;;;23.47;13.30;;;9.90;99.90;;;;;;4962342;28;20435;-80
2021/03/10 11:53:57;;;;;;;25.63;13.13;;;9.90;99.90;;;;;;4967725;28;20911;-80
2021/03/10 11:56:23;;;;;;;29.10;12.73;;;10.30;99.90;;;;;;4965373;28;20622;-80
2021/03/10 11:58:48;;;;;;;26.67;14.37;;;10.20;99.90;;;;;;4964219;28;20191;-78
2021/03/10 12:01:14;;;;;;;23.97;15.63;;;10.10;99.90;;;;;;4973706;28;20191;-81
2021/03/10 12:03:40;;;;;;;21.63;12.87;;;9.60;99.90;;;;;;4971902;28;20198;-80
2021/03/10 12:06:06;;;;;;;23.00;13.10;;;9.10;99.90;;;;;;4962979;28;20231;-81
2021/03/10 12:08:32;;;;;;;26.70;14.30;;;9.10;99.90;;;;;;4962693;28;20209;-79
2021/03/10 12:10:58;;;;;;;22.03;12.50;;;9.20;99.90;;;;;;4963956;28;20447;-80
2021/03/10 12:13:26;;;;;;;17.00;12.47;;;9.60;99.90;;;;;;4966128;28;20191;-80
2021/03/10 12:15:54;;;;;;;21.70;12.20;;;9.80;99.90;;;;;;4960795;28;20466;-79
2021/03/10 12:18:21;;;;;;;27.30;12.67;;;9.70;99.90;;;;;;4957700;28;20432;-80
2021/03/10 12:20:48;;;;;;;20.13;12.50;;;9.80;99.90;;;;;;4955862;28;20442;-79
2021/03/10 12:23:15;;;;;;;18.83;12.20;;;9.40;99.90;;;;;;4958757;28;20539;-80
2021/03/10 12:25:41;;;;;;;17.03;12.20;;;9.70;99.90;;;;;;4963850;28;20484;-81
2021/03/10 12:28:07;;;;;;;20.07;12.17;;;10.30;99.90;;;;;;4960738;28;20778;-80
2021/03/10 12:30:33;;;;;;;13.80;10.03;;;10.50;99.90;;;;;;4958955;28;20205;-79
2021/03/10 12:32:59;;;;;;;18.30;11.70;;;10.40;99.90;;;;;;4958388;28;20195;-78
2021/03/10 12:35:24;;;;;;;15.97;11.70;;;11.60;99.90;;;;;;4962208;28;20211;-79
2021/03/10 12:37:54;;;;;;;14.20;11.20;;;11.20;99.90;;;;;;4941855;28;20238;-80
2021/03/10 12:40:21;;;;;;;18.20;11.50;;;11.00;99.90;;;;;;4962583;28;20186;-81
2021/03/10 12:42:51;;;;;;;17.63;11.40;;;10.70;99.90;;;;;;4959452;28;20445;-78